<?xml version='1.0' encoding='UTF-8'?>
<gpx xmlns="http://www.topografix.com/GPX/1/1" creator="www.balnam.be" version="1.1" xmlns:xsi="http://www.w3.org/2001/XMLSchema-instance" xsi:schemaLocation="http://www.topografix.com/GPX/1/1 http://www.topografix.com/GPX/1/1/gpx.xsd">
<trk>
<name>xhfmb1</name>
<cmt>d</cmt>
<desc>Mabompré Chemin n°1 Mabompré</desc>
<link href="https://chemins.be/mabompre/chemin/1"/><trkseg>
<trkpt lat="50.093091" lon="5.727124"><time>2026-05-02T15:52:50Z</time></trkpt>
<trkpt lat="50.093813" lon="5.728365"><time>2026-05-02T16:02:50Z</time></trkpt>
<trkpt lat="50.093707" lon="5.730531"><time>2026-05-02T16:12:50Z</time></trkpt>
</trkseg></trk>
<trk>
<name>xhfmb1</name>
<cmt>q</cmt>
<desc>Mabompré Chemin n°1 Mabompré</desc>
<link href="https://chemins.be/mabompre/chemin/1"/><trkseg>
<trkpt lat="50.093707" lon="5.730531"><time>2026-05-02T16:12:50Z</time></trkpt>
<trkpt lat="50.093783" lon="5.730953"><time>2026-05-02T16:22:50Z</time></trkpt>
<trkpt lat="50.093785" lon="5.731840"><time>2026-05-02T16:32:50Z</time></trkpt>
</trkseg></trk>
<trk>
<name>xhfmb1</name>
<cmt>d</cmt>
<desc>Mabompré Chemin n°1 Mabompré</desc>
<link href="https://chemins.be/mabompre/chemin/1"/><trkseg>
<trkpt lat="50.093785" lon="5.731840"><time>2026-05-02T16:32:50Z</time></trkpt>
<trkpt lat="50.094081" lon="5.733385"><time>2026-05-02T16:42:50Z</time></trkpt>
</trkseg></trk>
<trk>
<name>xhfmb1</name>
<cmt>r</cmt>
<desc>Mabompré Chemin n°1 Mabompré</desc>
<link href="https://chemins.be/mabompre/chemin/1"/><trkseg>
<trkpt lat="50.094081" lon="5.733385"><time>2026-05-02T16:42:50Z</time></trkpt>
<trkpt lat="50.094744" lon="5.735388"><time>2026-05-02T16:52:50Z</time></trkpt>
<trkpt lat="50.095019" lon="5.736547"><time>2026-05-02T17:02:50Z</time></trkpt>
<trkpt lat="50.094895" lon="5.737106"><time>2026-05-02T17:12:50Z</time></trkpt>
</trkseg></trk>
<trk>
<name>xhfmb1</name>
<cmt>q</cmt>
<desc>Mabompré Chemin n°1 Mabompré</desc>
<link href="https://chemins.be/mabompre/chemin/1"/><trkseg>
<trkpt lat="50.094895" lon="5.737106"><time>2026-05-02T17:12:50Z</time></trkpt>
<trkpt lat="50.094764" lon="5.737588"><time>2026-05-02T17:22:50Z</time></trkpt>
<trkpt lat="50.095418" lon="5.740828"><time>2026-05-02T17:32:50Z</time></trkpt>
</trkseg></trk>
<trk>
<name>xhfmb1</name>
<cmt>v</cmt>
<desc>Mabompré Chemin n°1 Mabompré</desc>
<link href="https://chemins.be/mabompre/chemin/1"/><trkseg>
<trkpt lat="50.095418" lon="5.740828"><time>2026-05-02T17:32:50Z</time></trkpt>
<trkpt lat="50.096051" lon="5.742695"><time>2026-05-02T17:42:50Z</time></trkpt>
<trkpt lat="50.095756" lon="5.743242"><time>2026-05-02T17:52:50Z</time></trkpt>
<trkpt lat="50.095873" lon="5.745034"><time>2026-05-02T18:02:50Z</time></trkpt>
<trkpt lat="50.096073" lon="5.747411"><time>2026-05-02T18:12:50Z</time></trkpt>
<trkpt lat="50.096430" lon="5.749776"><time>2026-05-02T18:22:50Z</time></trkpt>
<trkpt lat="50.096784" lon="5.751193"><time>2026-05-02T18:32:50Z</time></trkpt>
</trkseg></trk>
<trk>
<name>xhfmb1</name>
<cmt>d</cmt>
<desc>Mabompré Chemin n°1 Mabompré</desc>
<link href="https://chemins.be/mabompre/chemin/1"/><trkseg>
<trkpt lat="50.096784" lon="5.751193"><time>2026-05-02T18:32:50Z</time></trkpt>
<trkpt lat="50.096981" lon="5.751686"><time>2026-05-02T18:42:50Z</time></trkpt>
<trkpt lat="50.097098" lon="5.752131"><time>2026-05-02T18:52:50Z</time></trkpt>
<trkpt lat="50.097741" lon="5.753800"><time>2026-05-02T19:02:50Z</time></trkpt>
<trkpt lat="50.099011" lon="5.757898"><time>2026-05-02T19:12:50Z</time></trkpt>
</trkseg></trk>
<trk>
<name>xhfmb1</name>
<cmt>s</cmt>
<desc>Mabompré Chemin n°1 Mabompré</desc>
<link href="https://chemins.be/mabompre/chemin/1"/><trkseg>
<trkpt lat="50.099011" lon="5.757898"><time>2026-05-02T19:12:50Z</time></trkpt>
<trkpt lat="50.099541" lon="5.759776"><time>2026-05-02T19:22:50Z</time></trkpt>
</trkseg></trk>
<trk>
<name>xhfmb1</name>
<cmt>q</cmt>
<desc>Mabompré Chemin n°1 Mabompré</desc>
<link href="https://chemins.be/mabompre/chemin/1"/><trkseg>
<trkpt lat="50.099541" lon="5.759776"><time>2026-05-02T19:22:50Z</time></trkpt>
<trkpt lat="50.102803" lon="5.767071"><time>2026-05-02T19:32:50Z</time></trkpt>
</trkseg>
</trk>
</gpx>